createdAt,value
2022-10-21T00:00:59.807Z,26
2022-10-21T00:02:02.268Z,26
2022-10-21T00:03:04.511Z,26
2022-10-21T00:04:06.974Z,26.1
2022-10-21T00:05:08.902Z,26.1
2022-10-21T00:06:11.388Z,26.1
2022-10-21T00:07:13.902Z,26.1
2022-10-21T00:08:16.147Z,26.1
2022-10-21T00:09:18.642Z,26.1
2022-10-21T00:10:20.860Z,26.1
2022-10-21T00:11:23.332Z,26.1
2022-10-21T00:12:25.802Z,26.1
2022-10-21T00:13:28.286Z,26.1
2022-10-21T00:14:30.753Z,26.1
2022-10-21T00:15:33.228Z,26.1
2022-10-21T00:16:35.704Z,26.1
2022-10-21T00:17:38.175Z,26.2
2022-10-21T00:18:40.671Z,26.2
2022-10-21T00:19:42.873Z,26.2
2022-10-21T00:20:45.376Z,26.2
2022-10-21T00:21:47.884Z,26.2
2022-10-21T00:22:49.813Z,26.2
2022-10-21T00:23:52.048Z,26.2
2022-10-21T00:24:54.522Z,26.2
2022-10-21T00:25:56.997Z,26.2
2022-10-21T00:26:59.176Z,26.2
2022-10-21T00:28:01.375Z,26.2
2022-10-21T00:29:03.573Z,26.2
2022-10-21T00:30:05.515Z,26.2
2022-10-21T00:31:07.713Z,26.2
2022-10-21T00:32:10.192Z,26.2
2022-10-21T00:33:12.388Z,26.2
2022-10-21T00:34:14.866Z,26.2
2022-10-21T00:35:17.085Z,26.2
2022-10-21T00:36:19.571Z,26.2
2022-10-21T00:37:22.048Z,26.2
2022-10-21T00:38:24.580Z,26.2
2022-10-21T00:39:27.467Z,26.2
2022-10-21T00:40:29.389Z,26.3
2022-10-21T00:41:31.600Z,26.3
2022-10-21T00:42:34.084Z,26.3
2022-10-21T00:43:37.121Z,26.3
2022-10-21T00:44:39.314Z,26.3
2022-10-21T00:45:41.530Z,26.3
2022-10-21T00:46:44.005Z,26.3
2022-10-21T00:48:49.763Z,26.3
2022-10-21T00:49:52.258Z,26.3
2022-10-21T00:50:54.454Z,26.3
2022-10-21T00:51:56.669Z,26.3
2022-10-21T00:52:59.137Z,26.3
2022-10-21T00:54:01.647Z,26.3
2022-10-21T00:55:04.165Z,26.3
2022-10-21T00:56:06.686Z,26.3
2022-10-21T00:57:09.453Z,26.3
2022-10-21T00:58:11.652Z,26.3
2022-10-21T00:59:14.112Z,26.3
2022-10-21T01:00:16.588Z,26.3
2022-10-21T01:02:23.781Z,26.3
2022-10-21T01:03:26.255Z,26.3
2022-10-21T01:04:28.730Z,26.3
2022-10-21T01:05:30.937Z,26.3
2022-10-21T01:06:33.142Z,26.3
2022-10-21T01:08:40.889Z,26.3
2022-10-21T01:09:43.703Z,26.3
2022-10-21T01:10:46.205Z,26.3
2022-10-21T01:11:48.382Z,26.3
2022-10-21T01:12:50.854Z,26.3
2022-10-21T01:13:53.323Z,26.3
2022-10-21T01:14:55.931Z,26.3
2022-10-21T01:15:58.029Z,26.3
2022-10-21T01:17:00.234Z,26.3
2022-10-21T01:18:02.722Z,26.3
2022-10-21T01:19:05.198Z,26.3
2022-10-21T01:20:07.108Z,26.3
2022-10-21T01:21:09.602Z,26.3
2022-10-21T01:22:12.076Z,26.3
2022-10-21T01:23:14.022Z,26.3
2022-10-21T01:24:16.506Z,26.3
2022-10-21T01:25:18.726Z,26.3
2022-10-21T01:26:21.224Z,26.3
2022-10-21T01:27:23.697Z,26.3
2022-10-21T01:28:25.876Z,26.3
2022-10-21T01:29:28.365Z,26.3
2022-10-21T01:30:30.840Z,26.3
2022-10-21T01:31:33.051Z,26.3
2022-10-21T01:32:35.243Z,26.3
2022-10-21T01:33:37.442Z,26.3
2022-10-21T01:34:39.919Z,26.3
2022-10-21T01:35:42.118Z,26.3
2022-10-21T01:36:44.605Z,26.3
2022-10-21T01:37:47.217Z,26.3
2022-10-21T01:38:49.574Z,26.3
2022-10-21T01:39:51.785Z,26.3
2022-10-21T01:40:54.282Z,26.3
2022-10-21T01:41:56.752Z,26.3
2022-10-21T01:42:59.166Z,26.3
2022-10-21T01:44:01.641Z,26.4
2022-10-21T01:45:03.838Z,26.4
2022-10-21T01:46:05.730Z,26.4
2022-10-21T01:47:08.206Z,26.4
2022-10-21T01:48:10.690Z,26.4
2022-10-21T01:49:13.156Z,26.4
2022-10-21T01:50:15.365Z,26.4
2022-10-21T01:51:17.826Z,26.4
2022-10-21T01:52:20.477Z,26.4
2022-10-21T01:53:22.940Z,26.4
2022-10-21T01:54:25.416Z,26.4
2022-10-21T01:55:27.921Z,26.4
2022-10-21T01:56:30.149Z,26.4
2022-10-21T01:57:32.371Z,26.4
2022-10-21T01:58:34.842Z,26.4
2022-10-21T01:59:37.035Z,26.4
2022-10-21T02:00:39.746Z,26.4
2022-10-21T02:01:42.402Z,26.4
2022-10-21T02:02:44.891Z,26.4
2022-10-21T02:03:47.090Z,26.4
2022-10-21T02:04:49.267Z,26.4
2022-10-21T02:05:51.478Z,26.4
2022-10-21T02:06:53.680Z,26.4
2022-10-21T02:07:56.175Z,26.4
2022-10-21T02:08:58.921Z,26.4
2022-10-21T02:10:01.658Z,26.4
2022-10-21T02:11:03.884Z,26.4
2022-10-21T02:12:06.379Z,26.4
2022-10-21T02:13:09.120Z,26.4
2022-10-21T02:14:11.332Z,26.4
2022-10-21T02:15:13.543Z,26.4
2022-10-21T02:16:15.737Z,26.4
2022-10-21T02:17:18.200Z,26.4
2022-10-21T02:18:20.395Z,26.4
2022-10-21T02:19:23.090Z,26.4
2022-10-21T02:20:25.511Z,26.4
2022-10-21T02:21:27.433Z,26.4
2022-10-21T02:22:29.636Z,26.4
2022-10-21T02:23:32.128Z,26.4
2022-10-21T02:24:34.070Z,26.4
2022-10-21T02:25:37.208Z,26.4
2022-10-21T02:26:39.118Z,26.4
2022-10-21T02:27:41.358Z,26.4
2022-10-21T02:28:43.592Z,26.4
2022-10-21T02:29:46.065Z,26.4
2022-10-21T02:30:48.547Z,26.4
2022-10-21T02:31:50.738Z,26.4
2022-10-21T02:32:52.667Z,26.4
2022-10-21T02:33:54.560Z,26.4
2022-10-21T02:34:57.037Z,26.4
2022-10-21T02:35:59.510Z,26.4
2022-10-21T02:37:01.706Z,26.4
2022-10-21T02:38:03.877Z,26.4
2022-10-21T02:39:06.099Z,26.4
2022-10-21T02:40:08.571Z,26.4
2022-10-21T02:41:11.040Z,26.4
2022-10-21T02:42:13.558Z,26.4
2022-10-21T02:43:15.508Z,26.4
2022-10-21T02:44:18.012Z,26.4
2022-10-21T02:45:20.482Z,26.5
2022-10-21T02:46:22.949Z,26.5
2022-10-21T02:47:25.155Z,26.5
2022-10-21T02:48:27.359Z,26.5
2022-10-21T02:49:29.562Z,26.5
2022-10-21T02:50:32.022Z,26.5
2022-10-21T02:51:34.503Z,26.5
2022-10-21T02:52:36.706Z,26.5
2022-10-21T02:53:39.178Z,26.5
2022-10-21T02:54:41.670Z,26.5
2022-10-21T02:55:43.874Z,26.5
2022-10-21T02:56:46.357Z,26.5
2022-10-21T02:57:48.853Z,26.5
2022-10-21T02:58:51.351Z,26.5
2022-10-21T02:59:53.844Z,26.5
2022-10-21T03:00:56.521Z,26.5
2022-10-21T03:01:59.149Z,26.5
2022-10-21T03:03:01.334Z,26.4
2022-10-21T03:04:03.801Z,26.4
2022-10-21T03:05:06.279Z,26.4
2022-10-21T03:06:08.467Z,26.4
2022-10-21T03:07:10.724Z,26.4
2022-10-21T03:08:12.918Z,26.4
2022-10-21T03:09:15.394Z,26.3
2022-10-21T03:10:17.601Z,26.3
2022-10-21T03:11:19.800Z,26.3
2022-10-21T03:12:22.267Z,26.3
2022-10-21T03:13:24.752Z,26.3
2022-10-21T03:14:27.243Z,26.3
2022-10-21T03:15:29.754Z,26.2
2022-10-21T03:16:32.214Z,26.2
2022-10-21T03:17:34.414Z,26.2
2022-10-21T03:18:36.876Z,26.2
2022-10-21T03:19:39.077Z,26.2
2022-10-21T03:20:41.352Z,26.2
2022-10-21T03:21:43.548Z,26.2
2022-10-21T03:22:45.647Z,26.2
2022-10-21T03:23:48.245Z,26.1
2022-10-21T03:24:50.711Z,26.1
2022-10-21T03:25:53.206Z,26.1
2022-10-21T03:26:55.685Z,26.1
2022-10-21T03:27:58.168Z,26.1
2022-10-21T03:29:00.359Z,26.1
2022-10-21T03:30:02.589Z,26.1
2022-10-21T03:31:04.860Z,26
2022-10-21T03:32:07.341Z,26
2022-10-21T03:33:09.510Z,26
2022-10-21T03:34:11.717Z,26
2022-10-21T03:35:14.208Z,26
2022-10-21T03:36:16.514Z,26
2022-10-21T03:37:18.714Z,26
2022-10-21T03:38:20.945Z,26
2022-10-21T03:39:23.410Z,26
2022-10-21T03:40:25.886Z,26
2022-10-21T03:41:28.383Z,26
2022-10-21T03:42:30.860Z,26
2022-10-21T03:43:33.326Z,26
2022-10-21T03:44:35.825Z,26
2022-10-21T03:45:38.320Z,25.9
2022-10-21T03:46:40.814Z,25.9
2022-10-21T03:47:42.740Z,25.9
2022-10-21T03:48:45.209Z,25.9
2022-10-21T03:49:47.129Z,25.9
2022-10-21T03:50:49.324Z,25.9
2022-10-21T03:51:51.794Z,25.9
2022-10-21T03:52:53.991Z,25.9
2022-10-21T03:53:56.473Z,25.9
2022-10-21T03:54:58.961Z,25.9
2022-10-21T03:56:01.133Z,25.9
2022-10-21T03:57:03.616Z,25.9
2022-10-21T03:58:05.812Z,25.9
2022-10-21T03:59:08.019Z,25.9
2022-10-21T04:00:10.746Z,25.9
2022-10-21T04:01:14.499Z,25.9
2022-10-21T04:02:17.209Z,25.9
2022-10-21T04:03:19.408Z,25.9
2022-10-21T04:04:21.912Z,25.9
2022-10-21T04:05:24.400Z,25.9
2022-10-21T04:06:26.601Z,25.9
2022-10-21T04:07:28.787Z,25.9
2022-10-21T04:08:31.141Z,25.9
2022-10-21T04:09:33.728Z,25.9
2022-10-21T04:10:36.748Z,25.9
2022-10-21T04:11:39.213Z,25.9
2022-10-21T04:12:42.037Z,25.9
2022-10-21T04:13:44.230Z,25.9
2022-10-21T04:14:46.706Z,25.9
2022-10-21T04:15:49.187Z,25.9
2022-10-21T04:17:56.704Z,25.9
2022-10-21T04:18:59.191Z,25.9
2022-10-21T04:20:01.681Z,25.9
2022-10-21T04:21:03.883Z,25.9
2022-10-21T04:22:06.106Z,25.9
2022-10-21T04:23:08.311Z,25.9
2022-10-21T04:24:10.779Z,25.9
2022-10-21T04:25:12.971Z,25.8
2022-10-21T04:26:15.149Z,25.8
2022-10-21T04:27:17.338Z,25.9
2022-10-21T04:28:19.837Z,25.8
2022-10-21T04:29:22.031Z,25.8
2022-10-21T04:30:24.520Z,25.8
2022-10-21T04:32:31.992Z,25.8
2022-10-21T04:33:34.236Z,25.8
2022-10-21T04:34:36.179Z,25.8
2022-10-21T04:35:38.376Z,25.8
2022-10-21T04:36:41.011Z,25.8
2022-10-21T04:37:43.240Z,25.8
2022-10-21T04:38:45.736Z,25.8
2022-10-21T04:39:48.225Z,25.8
2022-10-21T04:40:50.399Z,25.8
2022-10-21T04:41:52.877Z,25.8
2022-10-21T04:42:55.048Z,25.8
2022-10-21T04:43:57.247Z,25.8
2022-10-21T04:44:59.429Z,25.8
2022-10-21T04:46:01.606Z,25.8
2022-10-21T04:47:03.241Z,25.8
2022-10-21T04:48:05.718Z,25.8
2022-10-21T04:49:07.958Z,25.8
2022-10-21T04:50:10.175Z,25.8
2022-10-21T04:51:12.652Z,25.8
2022-10-21T04:52:15.113Z,25.8
2022-10-21T04:53:17.317Z,25.8
2022-10-21T04:54:19.518Z,25.8
2022-10-21T04:55:21.998Z,25.8
2022-10-21T04:56:24.190Z,25.8
2022-10-21T04:57:26.667Z,25.8
2022-10-21T04:58:29.160Z,25.8
2022-10-21T04:59:31.651Z,25.8
2022-10-21T05:00:34.073Z,25.8
2022-10-21T05:01:36.461Z,25.8
2022-10-21T05:02:40.085Z,25.8
2022-10-21T05:03:43.734Z,25.8
2022-10-21T05:04:46.249Z,25.7
2022-10-21T05:05:48.741Z,25.8
2022-10-21T05:06:50.932Z,25.7
2022-10-21T05:07:52.594Z,25.7
2022-10-21T05:08:55.055Z,25.8
2022-10-21T05:09:57.220Z,25.7
2022-10-21T05:10:59.412Z,25.7
2022-10-21T05:12:01.874Z,25.7
2022-10-21T05:13:04.348Z,25.7
2022-10-21T05:14:06.817Z,25.8
2022-10-21T05:15:09.020Z,25.8
2022-10-21T05:16:11.491Z,25.8
2022-10-21T05:17:13.683Z,25.8
2022-10-21T05:18:15.891Z,25.8
2022-10-21T05:19:18.376Z,25.7
2022-10-21T05:20:20.614Z,25.8
2022-10-21T05:21:23.086Z,25.7
2022-10-21T05:22:25.411Z,25.8
2022-10-21T05:23:27.873Z,25.8
2022-10-21T05:24:30.351Z,25.7
2022-10-21T05:26:37.545Z,25.7
2022-10-21T05:27:39.722Z,25.7
2022-10-21T05:28:41.929Z,25.7
2022-10-21T05:29:44.131Z,25.7
2022-10-21T05:30:46.411Z,25.7
2022-10-21T05:31:48.606Z,25.7
2022-10-21T05:32:51.085Z,25.7
2022-10-21T05:33:53.554Z,25.7
2022-10-21T05:34:56.042Z,25.7
2022-10-21T05:35:58.589Z,25.7
2022-10-21T05:37:00.799Z,25.7
2022-10-21T05:38:03.001Z,25.7
2022-10-21T05:39:05.229Z,25.7
2022-10-21T05:40:07.447Z,25.7
2022-10-21T05:41:09.649Z,25.7
2022-10-21T05:42:11.818Z,25.7
2022-10-21T05:43:14.026Z,25.7
2022-10-21T05:44:16.505Z,25.7
2022-10-21T05:45:18.685Z,25.7
2022-10-21T05:46:20.908Z,25.7
2022-10-21T05:47:23.103Z,25.7
2022-10-21T05:48:25.574Z,25.7
2022-10-21T05:49:27.774Z,25.7
2022-10-21T05:50:30.258Z,25.7
2022-10-21T05:51:32.792Z,25.7
2022-10-21T05:52:35.130Z,25.7
2022-10-21T05:53:37.972Z,25.7
2022-10-21T05:54:40.152Z,25.7
2022-10-21T05:55:42.622Z,25.7
2022-10-21T05:56:45.100Z,25.7
2022-10-21T05:57:47.446Z,25.7
2022-10-21T05:58:50.011Z,25.7
2022-10-21T05:59:51.928Z,25.7
2022-10-21T06:00:53.760Z,25.7
2022-10-21T06:01:55.844Z,25.7
2022-10-21T06:02:58.044Z,25.7
2022-10-21T06:03:59.983Z,25.7
2022-10-21T06:05:01.885Z,25.7
2022-10-21T06:06:04.397Z,25.6
2022-10-21T06:07:06.927Z,25.7
2022-10-21T06:08:09.415Z,25.7
2022-10-21T06:09:11.585Z,25.7
2022-10-21T06:10:14.314Z,25.7
2022-10-21T06:11:16.776Z,25.7
2022-10-21T06:12:18.977Z,25.7
2022-10-21T06:13:21.176Z,25.7
2022-10-21T06:14:23.659Z,25.7
2022-10-21T06:15:25.827Z,25.7
2022-10-21T06:16:28.300Z,25.7
2022-10-21T06:17:30.816Z,25.7
2022-10-21T06:18:32.734Z,25.7
2022-10-21T06:19:34.945Z,25.7
2022-10-21T06:20:36.861Z,25.7
2022-10-21T06:21:39.392Z,25.7
2022-10-21T06:22:41.908Z,25.7
2022-10-21T06:23:44.446Z,25.7
2022-10-21T06:24:46.369Z,25.7
2022-10-21T06:25:48.866Z,25.7
2022-10-21T06:26:51.069Z,25.7
2022-10-21T06:27:53.557Z,25.7
2022-10-21T06:28:55.229Z,25.7
2022-10-21T06:29:56.875Z,25.7
2022-10-21T06:30:59.067Z,25.7
2022-10-21T06:32:00.995Z,25.7
2022-10-21T06:33:03.475Z,25.7
2022-10-21T06:34:05.824Z,25.7
2022-10-21T06:35:08.481Z,25.7
2022-10-21T06:36:10.404Z,25.7
2022-10-21T06:37:12.899Z,25.7
2022-10-21T06:38:15.147Z,25.7
2022-10-21T06:39:17.638Z,25.7
2022-10-21T06:40:19.838Z,25.7
2022-10-21T06:41:22.331Z,25.7
2022-10-21T06:42:24.814Z,25.7
2022-10-21T06:43:27.384Z,25.7
2022-10-21T06:44:29.867Z,25.7
2022-10-21T06:45:32.330Z,25.7
2022-10-21T06:46:33.978Z,25.7
2022-10-21T06:47:37.031Z,25.7
2022-10-21T06:48:40.586Z,25.7
2022-10-21T06:49:42.796Z,25.7
2022-10-21T06:50:44.714Z,25.7
2022-10-21T06:51:47.191Z,25.7
2022-10-21T06:52:49.412Z,25.7
2022-10-21T06:53:51.933Z,25.7
2022-10-21T06:54:54.493Z,25.7
2022-10-21T06:55:56.974Z,25.7
2022-10-21T06:56:59.473Z,25.7
2022-10-21T06:58:01.683Z,25.7
2022-10-21T06:59:03.902Z,25.7
2022-10-21T07:00:06.721Z,25.7
2022-10-21T07:02:13.925Z,25.7
2022-10-21T07:03:15.845Z,25.7
2022-10-21T07:04:17.780Z,25.7
2022-10-21T07:05:20.259Z,25.7
2022-10-21T07:06:23.097Z,25.7
2022-10-21T07:07:25.507Z,25.7
2022-10-21T07:09:33.436Z,25.7
2022-10-21T07:10:35.926Z,25.7
2022-10-21T07:11:38.417Z,25.7
2022-10-21T07:12:40.897Z,25.7
2022-10-21T07:13:43.377Z,25.7
2022-10-21T07:14:45.867Z,25.7
2022-10-21T07:15:48.486Z,25.7
2022-10-21T07:16:51.060Z,25.7
2022-10-21T07:17:53.567Z,25.7
2022-10-21T07:18:56.063Z,25.7
2022-10-21T07:19:58.285Z,25.7
2022-10-21T07:21:00.495Z,25.7
2022-10-21T07:22:02.977Z,25.7
2022-10-21T07:23:05.452Z,25.7
2022-10-21T07:24:07.113Z,25.7
2022-10-21T07:25:09.664Z,25.7
2022-10-21T07:26:11.890Z,25.7
2022-10-21T07:27:14.364Z,25.7
2022-10-21T07:28:16.843Z,25.7
2022-10-21T07:29:19.069Z,25.7
2022-10-21T07:30:21.250Z,25.7
2022-10-21T07:31:23.464Z,25.7
2022-10-21T07:32:25.945Z,25.7
2022-10-21T07:33:27.889Z,25.7
2022-10-21T07:34:30.075Z,25.7
2022-10-21T07:35:32.584Z,25.7
2022-10-21T07:36:35.069Z,25.7
2022-10-21T07:37:38.879Z,25.7
2022-10-21T07:38:42.076Z,25.7
2022-10-21T07:39:44.275Z,25.7
2022-10-21T07:40:46.548Z,25.7
2022-10-21T07:41:49.057Z,25.7
2022-10-21T07:42:51.541Z,25.7
2022-10-21T07:43:54.038Z,25.7
2022-10-21T07:44:56.517Z,25.7
2022-10-21T07:47:04.000Z,25.7
2022-10-21T07:48:06.237Z,25.7
2022-10-21T07:49:08.445Z,25.7
2022-10-21T07:50:10.393Z,25.7
2022-10-21T07:51:12.612Z,25.7
2022-10-21T07:53:19.740Z,25.7
2022-10-21T07:54:22.426Z,25.7
2022-10-21T07:55:24.932Z,25.7
2022-10-21T07:56:27.469Z,25.7
2022-10-21T07:57:29.963Z,25.7
2022-10-21T07:58:32.436Z,25.7
2022-10-21T07:59:34.927Z,25.7
2022-10-21T08:00:37.687Z,25.7
2022-10-21T08:01:40.580Z,25.6
2022-10-21T08:02:43.488Z,25.6
2022-10-21T08:03:45.674Z,25.6
2022-10-21T08:04:47.852Z,25.6
2022-10-21T08:05:49.758Z,25.6
2022-10-21T08:06:52.242Z,25.6
2022-10-21T08:07:54.454Z,25.6
2022-10-21T08:08:57.157Z,25.6
2022-10-21T08:09:59.246Z,25.6
2022-10-21T08:11:02.006Z,25.6
2022-10-21T08:12:05.147Z,25.6
2022-10-21T08:13:07.102Z,25.6
2022-10-21T08:14:09.317Z,25.6
2022-10-21T08:15:11.785Z,25.6
2022-10-21T08:16:14.270Z,25.6
2022-10-21T08:17:16.772Z,25.6
2022-10-21T08:18:18.980Z,25.6
2022-10-21T08:19:20.892Z,25.6
2022-10-21T08:20:23.115Z,25.6
2022-10-21T08:21:25.315Z,25.6
2022-10-21T08:22:27.526Z,25.6
2022-10-21T08:23:30.026Z,25.6
2022-10-21T08:24:32.201Z,25.6
2022-10-21T08:25:34.409Z,25.6
2022-10-21T08:26:36.883Z,25.6
2022-10-21T08:27:39.128Z,25.6
2022-10-21T08:28:41.359Z,25.6
2022-10-21T08:29:43.561Z,25.6
2022-10-21T08:30:46.052Z,25.6
2022-10-21T08:31:48.548Z,25.6
2022-10-21T08:32:51.023Z,25.6
2022-10-21T08:33:53.263Z,25.6
2022-10-21T08:34:55.740Z,25.6
2022-10-21T08:35:57.984Z,25.6
2022-10-21T08:36:59.648Z,25.6
2022-10-21T08:38:02.043Z,25.6
2022-10-21T08:39:04.724Z,25.6
2022-10-21T08:40:06.939Z,25.6
2022-10-21T08:41:09.416Z,25.6
2022-10-21T08:42:11.347Z,25.6
2022-10-21T08:43:13.611Z,25.6
2022-10-21T08:44:16.112Z,25.6
2022-10-21T08:45:18.584Z,25.6
2022-10-21T08:46:21.067Z,25.6
2022-10-21T08:47:23.241Z,25.6
2022-10-21T08:48:25.747Z,25.6
2022-10-21T08:50:33.263Z,25.6
2022-10-21T08:51:35.753Z,25.6
2022-10-21T08:52:37.965Z,25.6
2022-10-21T08:53:40.185Z,25.6
2022-10-21T08:54:42.118Z,25.6
2022-10-21T08:55:44.637Z,25.6
2022-10-21T08:56:46.941Z,25.6
2022-10-21T08:57:49.422Z,25.6
2022-10-21T08:58:52.011Z,25.6
2022-10-21T08:59:54.526Z,25.6
2022-10-21T09:00:56.741Z,25.6
2022-10-21T09:01:58.958Z,25.6
2022-10-21T09:03:01.516Z,25.6
2022-10-21T09:04:03.695Z,25.6
2022-10-21T09:05:05.902Z,25.6
2022-10-21T09:06:08.391Z,25.6
2022-10-21T09:07:10.033Z,25.6
2022-10-21T09:08:12.504Z,25.6
2022-10-21T09:09:14.881Z,25.6
2022-10-21T09:10:17.797Z,25.6
2022-10-21T09:11:20.243Z,25.6
2022-10-21T09:12:22.449Z,25.6
2022-10-21T09:13:24.376Z,25.6
2022-10-21T09:14:26.769Z,25.6
2022-10-21T09:15:29.510Z,25.6
2022-10-21T09:16:31.729Z,25.6
2022-10-21T09:17:34.221Z,25.6
2022-10-21T09:18:36.148Z,25.6
2022-10-21T09:19:38.653Z,25.6
2022-10-21T09:20:41.325Z,25.6
2022-10-21T09:21:43.823Z,25.6
2022-10-21T09:22:47.229Z,25.6
2022-10-21T09:23:49.457Z,25.6
2022-10-21T09:24:51.955Z,25.6
2022-10-21T09:25:53.618Z,25.6
2022-10-21T09:26:56.099Z,25.6
2022-10-21T09:27:59.617Z,25.6
2022-10-21T09:29:02.913Z,25.6
2022-10-21T09:30:05.201Z,25.6
2022-10-21T09:31:07.410Z,25.6
2022-10-21T09:32:09.599Z,25.6
2022-10-21T09:33:12.073Z,25.6
2022-10-21T09:34:14.676Z,25.6
2022-10-21T09:35:16.882Z,25.6
2022-10-21T09:36:18.793Z,25.6
2022-10-21T09:37:21.295Z,25.6
2022-10-21T09:38:23.477Z,25.6
2022-10-21T09:39:25.707Z,25.6
2022-10-21T09:40:28.213Z,25.6
2022-10-21T09:41:30.170Z,25.6
2022-10-21T09:43:37.638Z,25.6
2022-10-21T09:44:40.134Z,25.6
2022-10-21T09:45:42.395Z,25.6
2022-10-21T09:46:44.953Z,25.6
2022-10-21T09:47:47.169Z,25.6
2022-10-21T09:50:59.110Z,25.6
2022-10-21T09:52:01.316Z,25.6
2022-10-21T09:53:03.530Z,25.6
2022-10-21T09:54:05.749Z,25.6
2022-10-21T09:55:07.975Z,25.6
2022-10-21T09:56:10.462Z,25.6
2022-10-21T09:57:12.938Z,25.6
2022-10-21T09:58:15.440Z,25.6
2022-10-21T09:59:17.634Z,25.6
2022-10-21T10:00:19.261Z,25.6
2022-10-21T10:01:21.554Z,25.6
2022-10-21T10:02:23.999Z,25.6
2022-10-21T10:03:26.083Z,25.6
2022-10-21T10:04:28.283Z,25.6
2022-10-21T10:05:30.496Z,25.6
2022-10-21T10:06:32.975Z,25.6
2022-10-21T10:07:35.160Z,25.6
2022-10-21T10:08:38.109Z,25.6
2022-10-21T10:09:40.394Z,25.6
2022-10-21T10:10:42.867Z,25.6
2022-10-21T10:11:45.095Z,25.6
2022-10-21T10:12:47.309Z,25.6
2022-10-21T10:13:48.971Z,25.6
2022-10-21T10:14:51.147Z,25.6
2022-10-21T10:15:53.075Z,25.6
2022-10-21T10:16:55.342Z,25.6
2022-10-21T10:17:57.559Z,25.6
2022-10-21T10:18:59.761Z,25.6
2022-10-21T10:20:01.975Z,25.6
2022-10-21T10:21:04.483Z,25.6
2022-10-21T10:23:11.943Z,25.6
2022-10-21T10:24:13.860Z,25.6
2022-10-21T10:25:15.583Z,25.6
2022-10-21T10:26:17.230Z,25.6
2022-10-21T10:27:19.735Z,25.6
2022-10-21T10:28:21.914Z,25.5
2022-10-21T10:29:23.842Z,25.6
2022-10-21T10:30:25.486Z,25.5
2022-10-21T10:31:27.702Z,25.6
2022-10-21T10:32:30.236Z,25.6
2022-10-21T10:33:32.615Z,25.6
2022-10-21T10:34:35.094Z,25.6
2022-10-21T10:35:37.573Z,25.6
2022-10-21T10:36:40.047Z,25.5
2022-10-21T10:38:46.049Z,25.6
2022-10-21T10:39:48.541Z,25.5
2022-10-21T10:40:54.092Z,25.6
2022-10-21T10:41:57.873Z,25.6
2022-10-21T10:43:00.449Z,25.6
2022-10-21T10:44:02.941Z,25.6
2022-10-21T10:45:05.144Z,25.6
2022-10-21T10:46:07.107Z,25.5
2022-10-21T10:47:09.321Z,25.5
2022-10-21T10:48:12.152Z,25.5
2022-10-21T10:49:14.585Z,25.5
2022-10-21T10:50:16.816Z,25.5
2022-10-21T10:51:19.325Z,25.5
2022-10-21T10:52:21.586Z,25.5
2022-10-21T10:53:24.157Z,25.5
2022-10-21T10:54:26.353Z,25.5
2022-10-21T10:55:28.535Z,25.5
2022-10-21T10:56:30.738Z,25.5
2022-10-21T10:58:37.934Z,25.5
2022-10-21T10:59:39.973Z,25.5
2022-10-21T11:00:42.470Z,25.5
2022-10-21T11:01:45.009Z,25.5
2022-10-21T11:02:46.918Z,25.6
2022-10-21T11:03:49.717Z,25.5
2022-10-21T11:04:52.139Z,25.6
2022-10-21T11:05:55.389Z,25.5
2022-10-21T11:06:57.074Z,25.5
2022-10-21T11:07:59.554Z,25.5
2022-10-21T11:09:02.288Z,25.5
2022-10-21T11:10:04.426Z,25.5
2022-10-21T11:11:06.914Z,25.5
2022-10-21T11:12:08.845Z,25.6
2022-10-21T11:13:11.062Z,25.5
2022-10-21T11:15:19.055Z,25.5
2022-10-21T11:16:21.353Z,25.6
2022-10-21T11:17:23.832Z,25.5
2022-10-21T11:18:26.229Z,25.5
2022-10-21T11:19:29.104Z,25.6
2022-10-21T11:20:31.423Z,25.6
2022-10-21T11:21:33.655Z,25.6
2022-10-21T11:22:35.608Z,25.5
2022-10-21T11:23:38.081Z,25.5
2022-10-21T11:24:40.051Z,25.5
2022-10-21T11:25:42.230Z,25.6
2022-10-21T11:26:44.437Z,25.6
2022-10-21T11:27:46.105Z,25.6
2022-10-21T11:28:48.763Z,25.6
2022-10-21T11:29:51.236Z,25.6
2022-10-21T11:30:53.426Z,25.6
2022-10-21T11:33:00.182Z,25.6
2022-10-21T11:34:02.108Z,25.6
2022-10-21T11:35:04.659Z,25.6
2022-10-21T11:36:07.252Z,25.6
2022-10-21T11:37:09.731Z,25.5
2022-10-21T11:38:11.918Z,25.6
2022-10-21T11:39:13.597Z,25.5
2022-10-21T11:40:20.056Z,25.6
2022-10-21T11:42:27.532Z,25.6
2022-10-21T11:43:29.730Z,25.5
2022-10-21T11:44:31.657Z,25.5
2022-10-21T11:45:33.567Z,25.5
2022-10-21T11:46:36.055Z,25.6
2022-10-21T11:47:38.637Z,25.5
2022-10-21T11:48:40.551Z,25.6
2022-10-21T11:49:43.036Z,25.5
2022-10-21T11:50:45.859Z,25.5
2022-10-21T11:51:48.461Z,25.5
2022-10-21T11:52:50.942Z,25.6
2022-10-21T11:53:52.880Z,25.5
2022-10-21T11:56:00.344Z,25.6
2022-10-21T11:57:02.817Z,25.6
2022-10-21T11:58:04.746Z,25.6
2022-10-21T11:59:07.221Z,25.6
2022-10-21T12:00:09.693Z,25.6
2022-10-21T12:01:12.169Z,25.6
2022-10-21T12:02:14.884Z,25.6
2022-10-21T12:03:17.739Z,25.6
2022-10-21T12:04:20.261Z,25.6
2022-10-21T12:05:21.914Z,25.6
2022-10-21T12:06:24.452Z,25.6
2022-10-21T12:07:27.039Z,25.6
2022-10-21T12:08:29.589Z,25.6
2022-10-21T12:09:31.821Z,25.6
2022-10-21T12:10:34.314Z,25.6
2022-10-21T12:11:36.826Z,25.6
2022-10-21T12:12:40.509Z,25.6
2022-10-21T12:13:43.977Z,25.6
2022-10-21T12:14:45.614Z,25.6
2022-10-21T12:15:48.111Z,25.6
2022-10-21T12:16:50.608Z,25.6
2022-10-21T12:17:52.806Z,25.6
2022-10-21T12:18:55.478Z,25.6
2022-10-21T12:19:57.993Z,25.6
2022-10-21T12:21:00.206Z,25.6
2022-10-21T12:22:02.746Z,25.6
2022-10-21T12:23:05.324Z,25.6
2022-10-21T12:24:07.248Z,25.5
2022-10-21T12:25:09.457Z,25.6
2022-10-21T12:26:11.936Z,25.5
2022-10-21T12:27:14.130Z,25.6
2022-10-21T12:28:16.332Z,25.5
2022-10-21T12:29:18.551Z,25.6
2022-10-21T12:31:25.740Z,25.5
2022-10-21T12:32:28.226Z,25.5
2022-10-21T12:33:30.158Z,25.5
2022-10-21T12:34:32.458Z,25.5
2022-10-21T12:35:34.571Z,25.5
2022-10-21T12:36:36.952Z,25.6
2022-10-21T12:37:40.378Z,25.5
2022-10-21T12:38:43.018Z,25.5
2022-10-21T12:39:45.498Z,25.5
2022-10-21T12:40:47.724Z,25.5
2022-10-21T12:41:50.200Z,25.5
2022-10-21T12:42:52.107Z,25.5
2022-10-21T12:43:54.585Z,25.5
2022-10-21T12:44:56.783Z,25.6
2022-10-21T12:45:58.995Z,25.5
2022-10-21T12:47:01.473Z,25.5
2022-10-21T12:48:03.970Z,25.6
2022-10-21T12:49:06.458Z,25.6
2022-10-21T12:50:09.017Z,25.5
2022-10-21T12:51:11.240Z,25.5
2022-10-21T12:52:13.459Z,25.5
2022-10-21T12:53:16.032Z,25.6
2022-10-21T12:54:18.004Z,25.5
2022-10-21T12:55:19.693Z,25.6
2022-10-21T12:56:22.175Z,25.5
2022-10-21T12:57:24.377Z,25.5
2022-10-21T12:58:26.597Z,25.5
2022-10-21T12:59:29.083Z,25.6
2022-10-21T13:00:31.561Z,25.6
2022-10-21T13:01:34.113Z,25.6
2022-10-21T13:02:36.698Z,25.6
2022-10-21T13:03:39.820Z,25.6
2022-10-21T13:04:42.026Z,25.6
2022-10-21T13:05:44.521Z,25.6
2022-10-21T13:06:47.096Z,25.6
2022-10-21T13:07:49.571Z,25.6
2022-10-21T13:08:52.365Z,25.6
2022-10-21T13:09:54.949Z,25.6
2022-10-21T13:10:56.925Z,25.6
2022-10-21T13:11:59.404Z,25.6
2022-10-21T13:13:01.663Z,25.6
2022-10-21T13:14:03.865Z,25.5
2022-10-21T13:15:06.361Z,25.5
2022-10-21T13:16:08.557Z,25.6
2022-10-21T13:17:11.047Z,25.6
2022-10-21T13:18:13.520Z,25.5
2022-10-21T13:19:15.723Z,25.6
2022-10-21T13:20:17.920Z,25.6
2022-10-21T13:21:22.305Z,25.6
2022-10-21T13:22:24.514Z,25.5
2022-10-21T13:23:26.723Z,25.6
2022-10-21T13:24:28.973Z,25.6
2022-10-21T13:25:31.479Z,25.6
2022-10-21T13:26:33.428Z,25.6
2022-10-21T13:27:36.131Z,25.6
2022-10-21T13:28:38.606Z,25.5
2022-10-21T13:29:40.807Z,25.5
2022-10-21T13:30:43.013Z,25.5
2022-10-21T13:31:46.212Z,25.6
2022-10-21T13:32:49.205Z,25.5
2022-10-21T13:33:51.799Z,25.6
2022-10-21T13:34:55.127Z,25.5
2022-10-21T13:35:57.771Z,25.5
2022-10-21T13:37:00.426Z,25.5
2022-10-21T13:38:02.631Z,25.6
2022-10-21T13:39:05.202Z,25.5
2022-10-21T13:40:08.387Z,25.5
2022-10-21T13:41:10.601Z,25.5
2022-10-21T13:43:17.533Z,25.5
2022-10-21T13:44:20.008Z,25.5
2022-10-21T13:45:22.259Z,25.5
2022-10-21T13:46:24.455Z,25.5
2022-10-21T13:47:26.351Z,25.5
2022-10-21T13:48:28.557Z,25.5
2022-10-21T13:49:30.770Z,25.5
2022-10-21T13:50:32.670Z,25.5
2022-10-21T13:51:34.881Z,25.5
2022-10-21T13:52:37.382Z,25.5
2022-10-21T13:53:39.586Z,25.5
2022-10-21T13:55:45.183Z,25.5
2022-10-21T13:56:47.676Z,25.5
2022-10-21T13:57:50.154Z,25.5
2022-10-21T13:58:52.088Z,25.5
2022-10-21T13:59:54.658Z,25.5
2022-10-21T14:02:01.828Z,25.5
2022-10-21T14:03:04.019Z,25.5
2022-10-21T14:05:11.516Z,25.5
2022-10-21T14:06:13.427Z,25.5
2022-10-21T14:07:15.692Z,25.5
2022-10-21T14:08:17.916Z,25.5
2022-10-21T14:09:20.387Z,25.5
2022-10-21T14:10:22.928Z,25.5
2022-10-21T14:11:25.474Z,25.5
2022-10-21T14:12:27.689Z,25.5
2022-10-21T14:13:30.164Z,25.5
2022-10-21T14:14:32.354Z,25.5
2022-10-21T14:15:34.837Z,25.5
2022-10-21T14:16:37.144Z,25.5
2022-10-21T14:17:40.787Z,25.5
2022-10-21T14:18:43.541Z,25.5
2022-10-21T14:19:46.027Z,25.6